Altus, Oklahoma
Current Conditions -  °F | °C
As of 2:58 AM on Saturday 01 Nov 2014 (Local Time) from KLTS Reporting Station
Clear Clear  
Wind Chill: 35°   Ceiling: Unl
Heat Index: 35°   Visibility: 10mi
Dew Point: 26°   Wind: 3mph
Humidity: 69%   Direction: 40°NE
Pressure: 30.37"   Gusts: NA
Location:  34.64°N, 99.33°W
Report Text: KLTS 010758Z AUTO 04003KT 10SM CLR 02/M03 A3037 RMK AO2 SLP286 T00171034 $
Loading
Personal Weather Stations






























Interactive Weather Map
Tropical Storm Tracking
New forecast layout! Learn more

10-Day Weather Forecast

Advertisements
Track Severe Weather on mobile